Pelagos — SZSW — position and weather

sailwx.info

Track history (hours):
 
Tides and Currents Weather Stations Pressure Air Temp Water Temp Dewpoint Dewpoint Depression Visibility Wind Speed Wind Dir Waves Ship Positions

Pelagos

Last reported at 2014-Jul-23 23:30 UTC. Time now 2014-Jul-23 23:45 UTC.
Position N 51°53' E 004°17'.

Length 249 m; draft 8.3 m.

Type: Ship (hazmat cat C). MMSI: 240335000.

Date/timePositionNaut miles runAvg speedWind from/ knotsBaromVisibWave heightAir tempDewpointWater temp
2014-Jul-23 23:30N 51°53' E 004°17'0 0.0
2014-Jul-23 22:27N 51°53' E 004°17'0 0.0
2014-Jul-23 20:30N 51°53' E 004°17'0 0.0
2014-Jul-23 19:06N 51°53' E 004°17'0 0.0
2014-Jul-23 17:30N 51°53' E 004°17'0 0.0
2014-Jul-23 16:24N 51°53' E 004°17'0 0.0
2014-Jul-23 15:09N 51°53' E 004°17'0 0.0
2014-Jul-23 14:03N 51°53' E 004°17'0 0.0
2014-Jul-23 13:12N 51°53' E 004°17'0 0.0
2014-Jul-23 12:30N 51°53' E 004°17'0 0.0
2014-Jul-23 11:12N 51°53' E 004°17'0 0.0
2014-Jul-23 10:24N 51°53' E 004°17'0 0.0
2014-Jul-23 09:30N 51°53' E 004°17'0 0.0
2014-Jul-23 08:27N 51°53' E 004°17'0 0.0
2014-Jul-23 07:30N 51°53' E 004°17'0 0.0
2014-Jul-23 06:30N 51°53' E 004°17'0 0.0
2014-Jul-23 05:30N 51°53' E 004°17'0 0.0
2014-Jul-23 04:33N 51°53' E 004°17'0 0.0
2014-Jul-23 03:24N 51°53' E 004°17'0 0.0
2014-Jul-23 02:33N 51°53' E 004°17'0 0.0
2014-Jul-23 01:30N 51°53' E 004°17'0 0.0
2014-Jul-23 00:33N 51°53' E 004°17'0 0.0
2014-Jul-22 23:33N 51°53' E 004°17'0 0.0
2014-Jul-22 22:30N 51°53' E 004°17'0 0.0
2014-Jul-22 21:27N 51°53' E 004°17'0 0.2
2014-Jul-22 20:33N 51°53' E 004°18'3 3.1
2014-Jul-22 19:33N 51°55' E 004°14'8 7.7
2014-Jul-22 18:33N 51°59' E 004°03'3 3.5
2014-Jul-22 17:33N 52°01' E 003°58'9 9.0
2014-Jul-22 16:33N 51°56' E 004°11'2 1.6
2014-Jul-22 15:33N 51°55' E 004°12'0 0.0
2014-Jul-22 14:33N 51°55' E 004°12'0 0.0
2014-Jul-22 13:33N 51°55' E 004°12'0 0.0
2014-Jul-22 12:27N 51°55' E 004°12'0 0.0
2014-Jul-22 11:33N 51°55' E 004°12'0 0.0
2014-Jul-22 10:33N 51°55' E 004°12'0 0.0
2014-Jul-22 09:33N 51°55' E 004°12'0 0.0
2014-Jul-22 08:33N 51°55' E 004°12'0 0.0
2014-Jul-22 07:27N 51°55' E 004°12'0 0.0
2014-Jul-22 06:33N 51°55' E 004°12'0 0.0
2014-Jul-22 05:27N 51°55' E 004°12'0 0.0
2014-Jul-22 04:30N 51°55' E 004°12'0 0.0
2014-Jul-22 03:33N 51°55' E 004°12'0 0.0
2014-Jul-22 02:33N 51°55' E 004°12'0 0.0
2014-Jul-22 01:30N 51°55' E 004°12'0 0.0
2014-Jul-22 00:33N 51°55' E 004°12'0 0.0
2014-Jul-21 23:33N 51°55' E 004°12'0 0.0
2014-Jul-21 22:33N 51°55' E 004°12'0 0.0
2014-Jul-21 21:33N 51°55' E 004°12'0 0.0
2014-Jul-21 20:33N 51°55' E 004°12'0 0.0
2014-Jul-21 20:15N 51°55' E 004°12'0 0.0
2014-Jul-21 19:18N 51°55' E 004°12'0 0.0
2014-Jul-21 18:21N 51°55' E 004°12'0 0.0
2014-Jul-21 17:03N 51°55' E 004°12'0 0.0
2014-Jul-21 16:27N 51°55' E 004°12'0 0.0
2014-Jul-21 15:21N 51°55' E 004°12'0 0.0
2014-Jul-21 14:27N 51°55' E 004°12'0 0.0
2014-Jul-21 13:30N 51°55' E 004°12'0 0.0
2014-Jul-21 12:30N 51°55' E 004°12'0 0.0
2014-Jul-21 11:33N 51°55' E 004°12'0 0.0
2014-Jul-21 10:21N 51°55' E 004°12'0 0.0
2014-Jul-21 09:33N 51°55' E 004°12'0 0.0
2014-Jul-21 08:24N 51°55' E 004°12'0 0.0
2014-Jul-21 07:24N 51°55' E 004°12'0 0.0
2014-Jul-21 06:33N 51°55' E 004°12'0 0.0
2014-Jul-21 05:30N 51°55' E 004°12'0 0.0
2014-Jul-21 04:30N 51°55' E 004°12'0 0.2
2014-Jul-21 03:33N 51°55' E 004°12'4 3.6
2014-Jul-21 02:33N 51°58' E 004°08'10 9.5
2014-Jul-21 01:33N 51°59' E 003°53'8 7.6
2014-Jul-21 00:33N 52°00' E 003°41'7 6.7
2014-Jul-20 23:33N 52°06' E 003°35'5 2.3
2014-Jul-20 21:27N 52°11' E 003°35'0 0.0
2014-Jul-20 20:27N 52°11' E 003°35'0 0.0
2014-Jul-20 19:27N 52°11' E 003°35'0 0.1
2014-Jul-20 16:18N 52°10' E 003°34'0 0.0
2014-Jul-20 14:30N 52°10' E 003°34'0 0.1
2014-Jul-20 12:27N 52°10' E 003°35'0 0.1
2014-Jul-20 09:24N 52°11' E 003°35'0 0.0
2014-Jul-20 08:30N 52°11' E 003°35'0 0.0
2014-Jul-20 07:33N 52°11' E 003°35'0 0.0
2014-Jul-20 06:33N 52°11' E 003°35'0 0.2
2014-Jul-20 05:33N 52°10' E 003°35'0 0.1
2014-Jul-20 04:28N 52°10' E 003°34'0 0.0
2014-Jul-20 02:12N 52°10' E 003°34'0 0.0
2014-Jul-20 01:27N 52°10' E 003°34'0 0.1
2014-Jul-20 00:13N 52°10' E 003°35'0 0.2
2014-Jul-19 23:33N 52°11' E 003°35'0 0.1
2014-Jul-19 22:31N 52°11' E 003°35'0 0.2
2014-Jul-19 21:33N 52°11' E 003°35'0 0.0
2014-Jul-19 20:33N 52°11' E 003°35'0 0.0
2014-Jul-19 19:30N 52°11' E 003°35'0 0.1
2014-Jul-19 16:24N 52°10' E 003°34'0 0.4
2014-Jul-19 15:33N 52°10' E 003°34'7 6.7
2014-Jul-19 14:33N 52°10' E 003°23'1010.3
2014-Jul-19 13:33N 52°17' E 003°11'2510.1
2014-Jul-19 11:04N 52°42' E 003°07'910.4
2014-Jul-19 10:10N 52°51' E 003°13'3710.2
2014-Jul-19 06:33N 53°26' E 003°31'1010.2
2014-Jul-19 05:33N 53°35' E 003°36'1010.0
2014-Jul-19 04:33N 53°44' E 003°43'1010.4
2014-Jul-19 03:33N 53°51' E 003°57'1010.4
2014-Jul-19 02:33N 53°57' E 004°12'1110.4
2014-Jul-19 01:33N 54°06' E 004°20'1110.4
2014-Jul-19 00:31N 54°15' E 004°30'1310.3
2014-Jul-18 23:18N 54°26' E 004°40'1010.4
2014-Jul-18 22:22N 54°35' E 004°48'910.3
2014-Jul-18 21:30N 54°43' E 004°56'1010.3
2014-Jul-18 20:32N 54°51' E 005°04'1010.3
2014-Jul-18 19:33N 55°00' E 005°12'1010.3
2014-Jul-18 18:33N 55°09' E 005°21'219 9.9
2014-Jul-17 20:25N 57°48' E 009°54'910.4
2014-Jul-17 19:33N 57°49' E 010°11'1010.1
2014-Jul-17 18:33N 57°49' E 010°30'10 9.6
2014-Jul-17 17:33N 57°47' E 010°47'1010.3
2014-Jul-17 16:33N 57°40' E 011°02'1010.3
2014-Jul-17 15:33N 57°33' E 011°16'1010.1
2014-Jul-17 14:33N 57°25' E 011°28'1010.2
2014-Jul-17 13:33N 57°16' E 011°34'1010.3
2014-Jul-17 12:33N 57°06' E 011°40'1010.1
2014-Jul-17 11:32N 56°56' E 011°47'10 9.8
2014-Jul-17 10:33N 56°47' E 011°53'9 9.1
2014-Jul-17 09:33N 56°40' E 011°43'1110.3
2014-Jul-17 08:31N 56°33' E 011°28'1110.3
2014-Jul-17 07:29N 56°26' E 011°14'10910.9
2014-Jul-16 21:33N 54°38' E 010°55'1312.6
2014-Jul-16 20:33N 54°34' E 011°16'1313.1
2014-Jul-16 19:33N 54°29' E 011°36'1312.8
2014-Jul-16 18:33N 54°26' E 011°58'1110.6
2014-Jul-16 17:33N 54°31' E 012°13'1010.2
2014-Jul-16 16:33N 54°39' E 012°25'1010.4
2014-Jul-16 15:33N 54°45' E 012°40'1010.3
2014-Jul-16 14:33N 54°50' E 012°56'1010.0
2014-Jul-16 13:33N 54°53' E 013°12'1010.3
2014-Jul-16 12:33N 54°57' E 013°28'1010.3
2014-Jul-16 11:33N 55°00' E 013°45'1110.3
2014-Jul-16 10:27N 55°04' E 014°04'1010.1
2014-Jul-16 09:29N 55°11' E 014°15'1010.4
2014-Jul-16 08:33N 55°19' E 014°26'1110.2
2014-Jul-16 07:29N 55°27' E 014°38'1010.4
2014-Jul-16 06:33N 55°31' E 014°54'1010.4
2014-Jul-16 05:33N 55°36' E 015°10'1110.3
2014-Jul-16 04:29N 55°40' E 015°29'1210.4
2014-Jul-16 03:18N 55°42' E 015°50'2910.4
2014-Jul-16 00:33N 55°50' E 016°39'1010.1
2014-Jul-15 23:33N 55°52' E 016°56'1010.1
2014-Jul-15 22:33N 55°55' E 017°14'1010.2
2014-Jul-15 21:33N 55°57' E 017°31'1010.2
2014-Jul-15 20:33N 55°59' E 017°49'1210.4
2014-Jul-15 19:23N 55°59' E 018°11'1110.7
2014-Jul-15 18:19N 55°59' E 018°31'910.5
2014-Jul-15 17:30N 55°60' E 018°47'1110.4
2014-Jul-15 16:28N 55°59' E 019°06'1010.5
2014-Jul-15 15:33N 55°57' E 019°23'1210.6
2014-Jul-15 14:23N 55°53' E 019°44'1310.6
2014-Jul-15 13:08N 55°50' E 020°07'  
Track history (hours):
 
Tides and Currents Weather Stations Pressure Air Temp Water Temp Dewpoint Dewpoint Depression Visibility Wind Speed Wind Dir Waves Ship Positions

Pelagos

Last reported at 2014-Jul-23 23:30 UTC. Time now 2014-Jul-23 23:45 UTC.
Position N 51°53' E 004°17'.

Length 249 m; draft 8.3 m.

Type: Ship (hazmat cat C). MMSI: 240335000.

Date/timePositionNaut miles runAvg speedWind from/ knotsBaromVisibWave heightAir tempDewpointWater temp
2014-Jul-23 23:30N 51°53' E 004°17'0 0.0
2014-Jul-23 22:27N 51°53' E 004°17'0 0.0
2014-Jul-23 20:30N 51°53' E 004°17'0 0.0
2014-Jul-23 19:06N 51°53' E 004°17'0 0.0
2014-Jul-23 17:30N 51°53' E 004°17'0 0.0
2014-Jul-23 16:24N 51°53' E 004°17'0 0.0
2014-Jul-23 15:09N 51°53' E 004°17'0 0.0
2014-Jul-23 14:03N 51°53' E 004°17'0 0.0
2014-Jul-23 13:12N 51°53' E 004°17'0 0.0
2014-Jul-23 12:30N 51°53' E 004°17'0 0.0
2014-Jul-23 11:12N 51°53' E 004°17'0 0.0
2014-Jul-23 10:24N 51°53' E 004°17'0 0.0
2014-Jul-23 09:30N 51°53' E 004°17'0 0.0
2014-Jul-23 08:27N 51°53' E 004°17'0 0.0
2014-Jul-23 07:30N 51°53' E 004°17'0 0.0
2014-Jul-23 06:30N 51°53' E 004°17'0 0.0
2014-Jul-23 05:30N 51°53' E 004°17'0 0.0
2014-Jul-23 04:33N 51°53' E 004°17'0 0.0
2014-Jul-23 03:24N 51°53' E 004°17'0 0.0
2014-Jul-23 02:33N 51°53' E 004°17'0 0.0
2014-Jul-23 01:30N 51°53' E 004°17'0 0.0
2014-Jul-23 00:33N 51°53' E 004°17'0 0.0
2014-Jul-22 23:33N 51°53' E 004°17'0 0.0
2014-Jul-22 22:30N 51°53' E 004°17'0 0.0
2014-Jul-22 21:27N 51°53' E 004°17'0 0.2
2014-Jul-22 20:33N 51°53' E 004°18'3 3.1
2014-Jul-22 19:33N 51°55' E 004°14'8 7.7
2014-Jul-22 18:33N 51°59' E 004°03'3 3.5
2014-Jul-22 17:33N 52°01' E 003°58'9 9.0
2014-Jul-22 16:33N 51°56' E 004°11'2 1.6
2014-Jul-22 15:33N 51°55' E 004°12'0 0.0
2014-Jul-22 14:33N 51°55' E 004°12'0 0.0
2014-Jul-22 13:33N 51°55' E 004°12'0 0.0
2014-Jul-22 12:27N 51°55' E 004°12'0 0.0
2014-Jul-22 11:33N 51°55' E 004°12'0 0.0
2014-Jul-22 10:33N 51°55' E 004°12'0 0.0
2014-Jul-22 09:33N 51°55' E 004°12'0 0.0
2014-Jul-22 08:33N 51°55' E 004°12'0 0.0
2014-Jul-22 07:27N 51°55' E 004°12'0 0.0
2014-Jul-22 06:33N 51°55' E 004°12'0 0.0
2014-Jul-22 05:27N 51°55' E 004°12'0 0.0
2014-Jul-22 04:30N 51°55' E 004°12'0 0.0
2014-Jul-22 03:33N 51°55' E 004°12'0 0.0
2014-Jul-22 02:33N 51°55' E 004°12'0 0.0
2014-Jul-22 01:30N 51°55' E 004°12'0 0.0
2014-Jul-22 00:33N 51°55' E 004°12'0 0.0
2014-Jul-21 23:33N 51°55' E 004°12'0 0.0
2014-Jul-21 22:33N 51°55' E 004°12'0 0.0
2014-Jul-21 21:33N 51°55' E 004°12'0 0.0
2014-Jul-21 20:33N 51°55' E 004°12'0 0.0
2014-Jul-21 20:15N 51°55' E 004°12'0 0.0
2014-Jul-21 19:18N 51°55' E 004°12'0 0.0
2014-Jul-21 18:21N 51°55' E 004°12'0 0.0
2014-Jul-21 17:03N 51°55' E 004°12'0 0.0
2014-Jul-21 16:27N 51°55' E 004°12'0 0.0
2014-Jul-21 15:21N 51°55' E 004°12'0 0.0
2014-Jul-21 14:27N 51°55' E 004°12'0 0.0
2014-Jul-21 13:30N 51°55' E 004°12'0 0.0
2014-Jul-21 12:30N 51°55' E 004°12'0 0.0
2014-Jul-21 11:33N 51°55' E 004°12'0 0.0
2014-Jul-21 10:21N 51°55' E 004°12'0 0.0
2014-Jul-21 09:33N 51°55' E 004°12'0 0.0
2014-Jul-21 08:24N 51°55' E 004°12'0 0.0
2014-Jul-21 07:24N 51°55' E 004°12'0 0.0
2014-Jul-21 06:33N 51°55' E 004°12'0 0.0
2014-Jul-21 05:30N 51°55' E 004°12'0 0.0
2014-Jul-21 04:30N 51°55' E 004°12'0 0.2
2014-Jul-21 03:33N 51°55' E 004°12'4 3.6
2014-Jul-21 02:33N 51°58' E 004°08'10 9.5
2014-Jul-21 01:33N 51°59' E 003°53'8 7.6
2014-Jul-21 00:33N 52°00' E 003°41'7 6.7
2014-Jul-20 23:33N 52°06' E 003°35'5 2.3
2014-Jul-20 21:27N 52°11' E 003°35'0 0.0
2014-Jul-20 20:27N 52°11' E 003°35'0 0.0
2014-Jul-20 19:27N 52°11' E 003°35'0 0.1
2014-Jul-20 16:18N 52°10' E 003°34'0 0.0
2014-Jul-20 14:30N 52°10' E 003°34'0 0.1
2014-Jul-20 12:27N 52°10' E 003°35'0 0.1
2014-Jul-20 09:24N 52°11' E 003°35'0 0.0
2014-Jul-20 08:30N 52°11' E 003°35'0 0.0
2014-Jul-20 07:33N 52°11' E 003°35'0 0.0
2014-Jul-20 06:33N 52°11' E 003°35'0 0.2
2014-Jul-20 05:33N 52°10' E 003°35'0 0.1
2014-Jul-20 04:28N 52°10' E 003°34'0 0.0
2014-Jul-20 02:12N 52°10' E 003°34'0 0.0
2014-Jul-20 01:27N 52°10' E 003°34'0 0.1
2014-Jul-20 00:13N 52°10' E 003°35'0 0.2
2014-Jul-19 23:33N 52°11' E 003°35'0 0.1
2014-Jul-19 22:31N 52°11' E 003°35'0 0.2
2014-Jul-19 21:33N 52°11' E 003°35'0 0.0
2014-Jul-19 20:33N 52°11' E 003°35'0 0.0
2014-Jul-19 19:30N 52°11' E 003°35'0 0.1
2014-Jul-19 16:24N 52°10' E 003°34'0 0.4
2014-Jul-19 15:33N 52°10' E 003°34'7 6.7
2014-Jul-19 14:33N 52°10' E 003°23'1010.3
2014-Jul-19 13:33N 52°17' E 003°11'2510.1
2014-Jul-19 11:04N 52°42' E 003°07'910.4
2014-Jul-19 10:10N 52°51' E 003°13'3710.2
2014-Jul-19 06:33N 53°26' E 003°31'1010.2
2014-Jul-19 05:33N 53°35' E 003°36'1010.0
2014-Jul-19 04:33N 53°44' E 003°43'1010.4
2014-Jul-19 03:33N 53°51' E 003°57'1010.4
2014-Jul-19 02:33N 53°57' E 004°12'1110.4
2014-Jul-19 01:33N 54°06' E 004°20'1110.4
2014-Jul-19 00:31N 54°15' E 004°30'1310.3
2014-Jul-18 23:18N 54°26' E 004°40'1010.4
2014-Jul-18 22:22N 54°35' E 004°48'910.3
2014-Jul-18 21:30N 54°43' E 004°56'1010.3
2014-Jul-18 20:32N 54°51' E 005°04'1010.3
2014-Jul-18 19:33N 55°00' E 005°12'1010.3
2014-Jul-18 18:33N 55°09' E 005°21'219 9.9
2014-Jul-17 20:25N 57°48' E 009°54'910.4
2014-Jul-17 19:33N 57°49' E 010°11'1010.1
2014-Jul-17 18:33N 57°49' E 010°30'10 9.6
2014-Jul-17 17:33N 57°47' E 010°47'1010.3
2014-Jul-17 16:33N 57°40' E 011°02'1010.3
2014-Jul-17 15:33N 57°33' E 011°16'1010.1
2014-Jul-17 14:33N 57°25' E 011°28'1010.2
2014-Jul-17 13:33N 57°16' E 011°34'1010.3
2014-Jul-17 12:33N 57°06' E 011°40'1010.1
2014-Jul-17 11:32N 56°56' E 011°47'10 9.8
2014-Jul-17 10:33N 56°47' E 011°53'9 9.1
2014-Jul-17 09:33N 56°40' E 011°43'1110.3
2014-Jul-17 08:31N 56°33' E 011°28'1110.3
2014-Jul-17 07:29N 56°26' E 011°14'10910.9
2014-Jul-16 21:33N 54°38' E 010°55'1312.6
2014-Jul-16 20:33N 54°34' E 011°16'1313.1
2014-Jul-16 19:33N 54°29' E 011°36'1312.8
2014-Jul-16 18:33N 54°26' E 011°58'1110.6
2014-Jul-16 17:33N 54°31' E 012°13'1010.2
2014-Jul-16 16:33N 54°39' E 012°25'1010.4
2014-Jul-16 15:33N 54°45' E 012°40'1010.3
2014-Jul-16 14:33N 54°50' E 012°56'1010.0
2014-Jul-16 13:33N 54°53' E 013°12'1010.3
2014-Jul-16 12:33N 54°57' E 013°28'1010.3
2014-Jul-16 11:33N 55°00' E 013°45'1110.3
2014-Jul-16 10:27N 55°04' E 014°04'1010.1
2014-Jul-16 09:29N 55°11' E 014°15'1010.4
2014-Jul-16 08:33N 55°19' E 014°26'1110.2
2014-Jul-16 07:29N 55°27' E 014°38'1010.4
2014-Jul-16 06:33N 55°31' E 014°54'1010.4
2014-Jul-16 05:33N 55°36' E 015°10'1110.3
2014-Jul-16 04:29N 55°40' E 015°29'1210.4
2014-Jul-16 03:18N 55°42' E 015°50'2910.4
2014-Jul-16 00:33N 55°50' E 016°39'1010.1
2014-Jul-15 23:33N 55°52' E 016°56'1010.1
2014-Jul-15 22:33N 55°55' E 017°14'1010.2
2014-Jul-15 21:33N 55°57' E 017°31'1010.2
2014-Jul-15 20:33N 55°59' E 017°49'1210.4
2014-Jul-15 19:23N 55°59' E 018°11'1110.7
2014-Jul-15 18:19N 55°59' E 018°31'910.5
2014-Jul-15 17:30N 55°60' E 018°47'1110.4
2014-Jul-15 16:28N 55°59' E 019°06'1010.5
2014-Jul-15 15:33N 55°57' E 019°23'1210.6
2014-Jul-15 14:23N 55°53' E 019°44'1310.6
2014-Jul-15 13:08N 55°50' E 020°07'  

Dump ship's entire track history